createdAt,value
2023-03-03T00:03:00.900Z,88.31
2023-03-03T00:05:47.891Z,88.45
2023-03-03T00:08:34.773Z,88.45
2023-03-03T00:11:21.673Z,88.44
2023-03-03T00:14:25.672Z,88.68
2023-03-03T00:17:24.301Z,89.08
2023-03-03T00:20:40.961Z,89.12
2023-03-03T00:23:27.410Z,89.13
2023-03-03T00:26:29.519Z,89.23
2023-03-03T00:29:37.194Z,89.88
2023-03-03T00:32:25.533Z,89.76
2023-03-03T00:35:25.063Z,89.57
2023-03-03T00:38:18.360Z,89.62
2023-03-03T00:41:16.362Z,90.01
2023-03-03T00:44:31.972Z,89.88
2023-03-03T00:47:31.399Z,89.78
2023-03-03T00:50:32.549Z,89.81
2023-03-03T00:53:23.427Z,89.92
2023-03-03T00:56:10.552Z,89.76
2023-03-03T00:58:57.263Z,89.56
2023-03-03T01:01:55.494Z,89.58
2023-03-03T01:04:48.970Z,89.92
2023-03-03T01:07:36.217Z,89.83
2023-03-03T01:10:23.305Z,89.54
2023-03-03T01:13:13.199Z,89.41
2023-03-03T01:16:02.137Z,89.39
2023-03-03T01:18:48.880Z,89.48
2023-03-03T01:21:36.216Z,89.52
2023-03-03T01:24:23.284Z,89.68
2023-03-03T01:27:09.938Z,89.64
2023-03-03T01:29:57.293Z,89.61
2023-03-03T01:32:44.554Z,89.79
2023-03-03T01:35:31.127Z,89.64
2023-03-03T01:38:17.960Z,89.44
2023-03-03T01:41:05.323Z,89.49
2023-03-03T01:45:50.305Z,89.86
2023-03-03T01:48:42.879Z,89.80
2023-03-03T01:51:34.048Z,89.68
2023-03-03T01:54:39.993Z,89.74
2023-03-03T01:57:39.680Z,89.67
2023-03-03T02:00:29.745Z,89.78
2023-03-03T02:03:17.978Z,89.63
2023-03-03T02:06:11.676Z,89.53
2023-03-03T02:09:21.514Z,89.50
2023-03-03T02:12:11.537Z,89.54
2023-03-03T02:14:58.370Z,89.67
2023-03-03T02:17:47.169Z,89.88
2023-03-03T02:20:55.645Z,89.66
2023-03-03T02:23:53.361Z,89.60
2023-03-03T02:26:41.594Z,89.66
2023-03-03T02:29:28.311Z,89.70
2023-03-03T02:32:15.314Z,89.68
2023-03-03T02:35:03.842Z,89.69
2023-03-03T02:37:51.631Z,89.80
2023-03-03T02:40:44.945Z,89.75
2023-03-03T02:43:57.458Z,89.73
2023-03-03T02:46:47.638Z,89.75
2023-03-03T02:49:36.428Z,89.61
2023-03-03T02:52:22.925Z,89.59
2023-03-03T02:55:37.099Z,89.58
2023-03-03T02:58:24.000Z,89.59
2023-03-03T03:01:11.407Z,89.84
2023-03-03T03:04:00.908Z,89.74
2023-03-03T03:06:47.901Z,89.76
2023-03-03T03:09:34.386Z,89.82
2023-03-03T03:12:27.548Z,89.71
2023-03-03T03:15:16.024Z,89.62
2023-03-03T03:18:02.966Z,89.80
2023-03-03T03:20:49.824Z,89.67
2023-03-03T03:23:36.952Z,89.61
2023-03-03T03:26:28.957Z,89.67
2023-03-03T03:29:15.654Z,89.96
2023-03-03T03:32:02.347Z,89.99
2023-03-03T03:34:50.022Z,89.70
2023-03-03T03:37:36.708Z,89.62
2023-03-03T03:40:26.871Z,89.63
2023-03-03T03:43:13.310Z,89.73
2023-03-03T03:46:00.290Z,89.60
2023-03-03T03:48:47.004Z,89.50
2023-03-03T03:51:41.390Z,89.75
2023-03-03T03:54:28.787Z,89.84
2023-03-03T03:57:15.343Z,90.40
2023-03-03T04:00:03.064Z,90.19
2023-03-03T04:02:55.669Z,90.24
2023-03-03T04:05:43.170Z,90.15
2023-03-03T04:08:29.546Z,90.03
2023-03-03T04:11:17.125Z,90.27
2023-03-03T04:14:30.291Z,90.67
2023-03-03T04:17:22.410Z,90.41
2023-03-03T04:20:12.863Z,90.34
2023-03-03T04:23:00.142Z,90.29
2023-03-03T04:25:48.733Z,90.38
2023-03-03T04:28:36.509Z,90.36
2023-03-03T04:31:23.690Z,90.72
2023-03-03T04:34:10.693Z,91.03
2023-03-03T04:36:59.009Z,90.93
2023-03-03T04:39:45.908Z,90.70
2023-03-03T04:42:32.846Z,90.43
2023-03-03T04:45:19.551Z,90.29
2023-03-03T04:48:06.862Z,90.28
2023-03-03T04:50:54.967Z,90.95
2023-03-03T04:53:41.682Z,90.95
2023-03-03T04:56:33.087Z,91.01
2023-03-03T04:59:20.171Z,91.15
2023-03-03T05:02:07.119Z,91.22
2023-03-03T05:04:54.196Z,91.12
2023-03-03T05:07:41.058Z,91.09
2023-03-03T05:10:29.840Z,91.00
2023-03-03T05:13:19.564Z,90.84
2023-03-03T05:16:08.589Z,90.59
2023-03-03T05:19:01.470Z,90.52
2023-03-03T05:21:49.097Z,90.42
2023-03-03T05:24:36.476Z,90.37
2023-03-03T05:27:24.072Z,90.48
2023-03-03T05:30:12.306Z,90.44
2023-03-03T05:33:00.104Z,90.64
2023-03-03T05:43:11.137Z,90.60
2023-03-03T05:47:13.919Z,90.55
2023-03-03T05:50:02.313Z,90.47
2023-03-03T05:52:53.125Z,90.24
2023-03-03T05:55:40.218Z,90.13
2023-03-03T05:58:28.424Z,90.08
2023-03-03T06:01:23.788Z,89.93
2023-03-03T06:05:05.677Z,90.14
2023-03-03T06:07:55.233Z,90.03
2023-03-03T06:11:02.408Z,89.25
2023-03-03T06:13:50.747Z,88.24
2023-03-03T06:16:38.000Z,88.13
2023-03-03T06:19:25.275Z,87.85
2023-03-03T06:22:12.330Z,87.76
2023-03-03T06:25:42.147Z,87.40
2023-03-03T06:29:39.264Z,86.89
2023-03-03T06:32:29.629Z,86.77
2023-03-03T06:35:17.671Z,86.58
2023-03-03T06:38:04.558Z,86.66
2023-03-03T06:40:51.381Z,84.77
2023-03-03T06:43:38.860Z,84.07
2023-03-03T06:46:45.428Z,82.37
2023-03-03T06:50:13.280Z,81.75
2023-03-03T06:54:26.923Z,81.92
2023-03-03T06:57:23.266Z,82.12
2023-03-03T07:00:25.139Z,82.75
2023-03-03T07:03:16.247Z,83.62
2023-03-03T07:06:15.467Z,84.38
2023-03-03T07:09:01.899Z,85.46
2023-03-03T07:12:01.459Z,85.43
2023-03-03T07:14:55.701Z,85.79
2023-03-03T07:17:50.508Z,86.21
2023-03-03T07:23:31.107Z,86.64
2023-03-03T07:27:29.147Z,86.56
2023-03-03T07:30:28.109Z,86.45
2023-03-03T07:33:28.079Z,86.57
2023-03-03T07:36:35.972Z,87.15
2023-03-03T07:42:08.690Z,87.35
2023-03-03T07:45:00.230Z,87.36
2023-03-03T07:47:46.909Z,87.49
2023-03-03T07:50:35.150Z,87.45
2023-03-03T07:53:30.069Z,87.11
2023-03-03T07:56:34.460Z,86.78
2023-03-03T07:59:26.790Z,86.63
2023-03-03T08:02:35.042Z,86.82
2023-03-03T08:17:38.764Z,86.09
2023-03-03T08:31:41.199Z,85.01
2023-03-03T08:35:09.931Z,85.00
2023-03-03T08:38:58.241Z,85.08
2023-03-03T08:41:47.272Z,85.30
2023-03-03T08:44:32.533Z,85.19
2023-03-03T08:47:18.070Z,84.60
2023-03-03T08:50:07.113Z,84.08
2023-03-03T09:22:38.086Z,85.09
2023-03-03T09:36:39.203Z,82.62
2023-03-03T09:39:39.339Z,83.14
2023-03-03T09:43:24.249Z,83.12
2023-03-03T09:46:32.496Z,83.22
2023-03-03T09:49:36.686Z,82.90
2023-03-03T09:53:00.810Z,83.04
2023-03-03T09:56:02.467Z,83.20
2023-03-03T09:59:09.480Z,83.45
2023-03-03T10:01:56.238Z,83.64
2023-03-03T10:04:54.407Z,83.77
2023-03-03T10:08:16.147Z,84.25
2023-03-03T10:11:27.553Z,84.18
2023-03-03T10:14:32.253Z,83.79
2023-03-03T10:17:45.255Z,83.25
2023-03-03T10:21:02.691Z,84.01
2023-03-03T10:24:30.226Z,84.42
2023-03-03T10:27:43.364Z,84.67
2023-03-03T10:31:04.039Z,84.69
2023-03-03T10:33:46.678Z,84.69
2023-03-03T10:36:33.213Z,84.99
2023-03-03T10:39:39.771Z,85.21
2023-03-03T10:42:56.259Z,85.52
2023-03-03T10:46:01.270Z,84.97
2023-03-03T10:49:08.730Z,84.66
2023-03-03T10:52:05.748Z,84.30
2023-03-03T10:55:20.054Z,84.21
2023-03-03T10:58:38.015Z,84.24
2023-03-03T11:01:45.515Z,83.81
2023-03-03T11:04:47.609Z,83.83
2023-03-03T11:07:57.743Z,83.70
2023-03-03T11:11:05.414Z,83.58
2023-03-03T11:13:56.382Z,83.48
2023-03-03T11:16:53.210Z,83.33
2023-03-03T11:19:39.708Z,83.07
2023-03-03T11:22:49.148Z,82.68
2023-03-03T11:25:55.889Z,82.45
2023-03-03T11:29:05.595Z,82.63
2023-03-03T11:32:22.729Z,82.52
2023-03-03T11:35:21.334Z,83.14
2023-03-03T11:38:30.032Z,83.38
2023-03-03T11:41:39.691Z,83.30
2023-03-03T11:44:44.251Z,83.36
2023-03-03T11:47:40.808Z,83.36
2023-03-03T11:50:42.724Z,83.33
2023-03-03T11:53:38.994Z,83.79
2023-03-03T11:56:46.834Z,83.89
2023-03-03T11:59:42.486Z,83.93
2023-03-03T12:02:46.163Z,83.68
2023-03-03T12:05:50.504Z,84.18
2023-03-03T12:08:42.066Z,84.65
2023-03-03T12:11:35.616Z,84.49
2023-03-03T12:14:37.128Z,84.59
2023-03-03T12:18:04.722Z,84.56
2023-03-03T12:20:57.854Z,84.32
2023-03-03T12:23:50.532Z,84.14
2023-03-03T12:26:59.752Z,84.23
2023-03-03T12:30:05.001Z,84.41
2023-03-03T12:32:56.750Z,84.48
2023-03-03T12:36:14.450Z,84.54
2023-03-03T12:39:13.563Z,84.60
2023-03-03T12:42:26.810Z,84.68
2023-03-03T12:45:30.035Z,85.09
2023-03-03T12:48:36.610Z,85.31
2023-03-03T12:51:41.983Z,85.24
2023-03-03T12:54:57.644Z,85.05
2023-03-03T12:57:55.614Z,85.44
2023-03-03T13:00:48.391Z,85.57
2023-03-03T13:03:58.453Z,85.67
2023-03-03T13:07:04.602Z,85.50
2023-03-03T13:10:16.785Z,85.49
2023-03-03T13:13:16.828Z,85.65
2023-03-03T13:16:16.783Z,85.71
2023-03-03T13:19:15.974Z,85.44
2023-03-03T13:22:16.211Z,85.57
2023-03-03T13:25:30.664Z,86.23
2023-03-03T13:28:23.496Z,86.74
2023-03-03T13:31:11.193Z,86.99
2023-03-03T13:34:00.799Z,86.74
2023-03-03T13:37:07.956Z,86.47
2023-03-03T13:40:50.971Z,86.39
2023-03-03T13:44:51.197Z,86.89
2023-03-03T13:48:09.209Z,87.00
2023-03-03T13:51:02.638Z,86.71
2023-03-03T13:53:52.366Z,86.67
2023-03-03T13:59:22.996Z,86.44
2023-03-03T14:02:48.329Z,86.33
2023-03-03T14:05:44.418Z,86.11
2023-03-03T14:08:56.200Z,85.89
2023-03-03T14:11:48.718Z,85.57
2023-03-03T14:25:20.896Z,84.85
2023-03-03T14:28:47.685Z,84.88
2023-03-03T14:31:42.519Z,84.86
2023-03-03T14:51:39.486Z,84.59
2023-03-03T14:58:41.425Z,84.59
2023-03-03T15:01:38.342Z,84.85
2023-03-03T15:31:41.680Z,85.14
2023-03-03T15:34:59.886Z,85.50
2023-03-03T15:38:43.600Z,85.44
2023-03-03T15:53:34.768Z,85.69
2023-03-03T15:56:51.336Z,85.59
2023-03-03T16:00:05.376Z,85.29
2023-03-03T16:02:59.153Z,85.20
2023-03-03T16:06:09.079Z,85.09
2023-03-03T16:09:16.823Z,84.97
2023-03-03T16:12:31.608Z,84.85
2023-03-03T16:16:02.953Z,84.48
2023-03-03T16:19:04.068Z,84.16
2023-03-03T16:22:24.710Z,84.13
2023-03-03T16:26:03.990Z,83.90
2023-03-03T16:29:03.653Z,84.56
2023-03-03T16:31:57.771Z,84.61
2023-03-03T16:35:07.662Z,84.44
2023-03-03T16:38:05.637Z,84.61
2023-03-03T16:40:55.063Z,84.60
2023-03-03T16:44:00.029Z,84.57
2023-03-03T16:50:10.279Z,84.56
2023-03-03T16:53:15.413Z,84.58
2023-03-03T16:57:01.809Z,84.29
2023-03-03T17:00:05.010Z,84.15
2023-03-03T17:03:22.445Z,84.09
2023-03-03T17:06:10.904Z,84.07
2023-03-03T17:09:48.624Z,84.43
2023-03-03T17:13:29.660Z,84.35
2023-03-03T17:16:51.787Z,84.37
2023-03-03T17:31:48.960Z,85.01
2023-03-03T17:34:54.957Z,85.22
2023-03-03T17:38:03.423Z,85.70
2023-03-03T17:45:38.264Z,85.70
2023-03-03T17:53:20.988Z,85.79
2023-03-03T17:57:14.007Z,85.71
2023-03-03T18:00:19.377Z,85.92
2023-03-03T18:03:29.853Z,85.90
2023-03-03T18:06:37.514Z,85.91
2023-03-03T18:09:43.771Z,85.95
2023-03-03T18:13:05.345Z,86.02
2023-03-03T18:16:34.729Z,85.98
2023-03-03T18:21:05.934Z,85.88
2023-03-03T18:25:22.110Z,85.77
2023-03-03T18:29:19.209Z,85.95
2023-03-03T18:33:01.981Z,85.84
2023-03-03T19:05:48.352Z,84.54
2023-03-03T19:08:59.461Z,84.85
2023-03-03T19:11:54.778Z,84.66
2023-03-03T19:14:43.811Z,84.51
2023-03-03T19:20:53.673Z,84.31
2023-03-03T19:24:04.696Z,84.33
2023-03-03T19:27:39.649Z,84.29
2023-03-03T19:32:16.469Z,84.34
2023-03-03T19:35:30.727Z,84.62
2023-03-03T19:40:01.444Z,84.86
2023-03-03T19:43:06.672Z,84.62
2023-03-03T19:46:24.796Z,84.52
2023-03-03T19:49:43.470Z,84.62
2023-03-03T19:54:44.327Z,84.19
2023-03-03T19:58:01.768Z,83.90
2023-03-03T20:01:09.081Z,83.93
2023-03-03T20:04:06.526Z,83.61
2023-03-03T20:07:42.234Z,83.43
2023-03-03T20:10:56.460Z,83.31
2023-03-03T20:17:57.239Z,83.52
2023-03-03T20:20:46.998Z,83.63
2023-03-03T20:23:54.236Z,83.66
2023-03-03T20:26:59.514Z,83.75
2023-03-03T20:30:07.787Z,83.91
2023-03-03T20:33:10.972Z,83.76
2023-03-03T20:36:10.365Z,83.73
2023-03-03T20:39:08.848Z,83.59
2023-03-03T20:42:18.730Z,83.07
2023-03-03T20:45:18.267Z,83.15
2023-03-03T20:48:12.499Z,83.09
2023-03-03T20:51:22.988Z,82.89
2023-03-03T20:54:37.513Z,82.98
2023-03-03T20:57:42.059Z,83.20
2023-03-03T21:00:47.901Z,83.40
2023-03-03T21:03:38.019Z,83.38
2023-03-03T21:06:39.026Z,83.07
2023-03-03T21:09:38.353Z,83.23
2023-03-03T21:12:31.364Z,83.38
2023-03-03T21:15:36.694Z,83.48
2023-03-03T21:18:27.045Z,83.21
2023-03-03T21:21:13.891Z,83.24
2023-03-03T21:24:01.122Z,83.51
2023-03-03T21:27:03.387Z,83.44
2023-03-03T21:30:09.728Z,83.31
2023-03-03T21:32:56.736Z,83.09
2023-03-03T21:36:07.160Z,83.04
2023-03-03T21:38:54.286Z,83.18
2023-03-03T21:41:56.029Z,83.07
2023-03-03T21:44:50.275Z,82.91
2023-03-03T21:47:36.912Z,82.67
2023-03-03T21:50:23.214Z,82.57
2023-03-03T21:53:09.881Z,82.46
2023-03-03T21:55:57.013Z,82.52
2023-03-03T21:58:45.087Z,82.52
2023-03-03T22:01:31.440Z,82.71
2023-03-03T22:04:18.389Z,82.66
2023-03-03T22:07:05.905Z,82.45
2023-03-03T22:09:55.788Z,82.42
2023-03-03T22:12:44.702Z,82.64
2023-03-03T22:15:34.582Z,82.83
2023-03-03T22:18:21.676Z,82.82
2023-03-03T22:21:09.417Z,82.99
2023-03-03T22:23:56.267Z,82.73
2023-03-03T22:26:42.912Z,82.55
2023-03-03T22:29:29.762Z,82.55
2023-03-03T22:32:16.466Z,83.02
2023-03-03T22:35:03.855Z,83.34
2023-03-03T22:37:51.154Z,83.35
2023-03-03T22:40:37.926Z,83.07
2023-03-03T22:43:25.807Z,83.30
2023-03-03T22:46:13.103Z,83.48
2023-03-03T22:49:00.005Z,83.44
2023-03-03T22:51:46.595Z,83.73
2023-03-03T22:54:33.146Z,83.73
2023-03-03T22:57:20.041Z,83.88
2023-03-03T23:00:12.817Z,84.06
2023-03-03T23:02:59.053Z,84.06
2023-03-03T23:05:45.811Z,84.08
2023-03-03T23:08:33.183Z,84.08
2023-03-03T23:11:21.890Z,83.91
2023-03-03T23:14:08.729Z,83.88
2023-03-03T23:16:57.104Z,83.85
2023-03-03T23:19:46.457Z,83.91
2023-03-03T23:22:33.585Z,83.96
2023-03-03T23:25:23.203Z,83.91
2023-03-03T23:28:10.640Z,83.83
2023-03-03T23:30:57.075Z,84.12
2023-03-03T23:33:43.873Z,84.22
2023-03-03T23:36:31.193Z,84.01
2023-03-03T23:39:18.162Z,84.16
2023-03-03T23:42:05.153Z,84.28
2023-03-03T23:44:52.045Z,84.52
2023-03-03T23:47:38.660Z,84.62
2023-03-03T23:50:25.397Z,84.63
2023-03-03T23:53:12.025Z,84.58
2023-03-03T23:55:58.827Z,84.54
2023-03-03T23:58:47.127Z,84.38
